Time;durP1;ratioP1;P1;durP2;ratioP2;P2;SDS_P1;SDS_P2;PMS_P1;PMS_P2;Temp;Humidity;BMP_temperature;BMP_pressure;BME280_temperature;BME280_humidity;BME280_pressure;Samples;Min_cycle;Max_cycle;Signal;HPM_P1;HPM_P2
2022/09/23 00:00:40;;;;;;;3.40;2.33;;;;;;;8.97;100.00;99269.75;5152877;27;20047;-65
2022/09/23 00:03:06;;;;;;;5.05;2.20;;;;;;;9.08;100.00;99280.97;5152724;27;20046;-65
2022/09/23 00:05:33;;;;;;;3.33;2.53;;;;;;;9.06;100.00;99288.72;5152885;27;20443;-66
2022/09/23 00:07:59;;;;;;;2.92;2.30;;;;;;;9.02;100.00;99305.03;5152606;27;20142;-65
2022/09/23 00:10:29;;;;;;;3.28;2.47;;;;;;;8.88;100.00;99304.66;5152880;27;20049;-65
2022/09/23 00:12:57;;;;;;;4.38;2.53;;;;;;;8.75;100.00;99306.66;5152475;27;20141;-65
2022/09/23 00:15:24;;;;;;;4.25;2.60;;;;;;;9.21;100.00;99287.94;5152593;27;20047;-65
2022/09/23 00:17:51;;;;;;;2.70;2.50;;;;;;;9.14;100.00;99301.44;5152564;27;20046;-65
2022/09/23 00:20:18;;;;;;;4.72;2.42;;;;;;;9.27;100.00;99308.41;5152206;27;20082;-65
2022/09/23 00:22:44;;;;;;;3.30;2.38;;;;;;;9.26;100.00;99316.97;5152364;27;20057;-65
2022/09/23 00:25:11;;;;;;;2.95;2.33;;;;;;;9.06;100.00;99327.00;5152476;27;20173;-65
2022/09/23 00:27:38;;;;;;;3.72;3.38;;;;;;;8.97;100.00;99323.66;5152291;27;20474;-65
2022/09/23 00:30:07;;;;;;;5.63;2.63;;;;;;;8.93;100.00;99313.41;5152406;27;20046;-65
2022/09/23 00:32:34;;;;;;;3.50;2.65;;;;;;;9.17;100.00;99304.25;5152442;27;20047;-65
2022/09/23 00:35:02;;;;;;;2.28;2.08;;;;;;;8.98;100.00;99308.81;5152218;27;20046;-65
2022/09/23 00:37:29;;;;;;;6.47;2.80;;;;;;;9.14;100.00;99312.38;5152368;27;20433;-65
2022/09/23 00:39:55;;;;;;;2.95;2.47;;;;;;;9.16;100.00;99307.34;5152175;27;20586;-65
2022/09/23 00:42:23;;;;;;;4.22;2.30;;;;;;;9.30;100.00;99307.72;5151302;27;20051;-65
2022/09/23 00:44:52;;;;;;;3.03;2.30;;;;;;;9.38;100.00;99322.34;5152027;27;20528;-65
2022/09/23 00:47:21;;;;;;;2.42;2.22;;;;;;;9.30;100.00;99331.53;5151976;27;20046;-66
2022/09/23 00:49:55;;;;;;;7.55;2.72;;;;;;;9.24;100.00;99330.22;5152186;27;20050;-65
2022/09/23 00:52:23;;;;;;;2.53;2.33;;;;;;;9.24;100.00;99319.28;5152138;27;20054;-65
2022/09/23 00:54:53;;;;;;;2.63;2.28;;;;;;;9.08;100.00;99317.31;5152382;27;20516;-65
2022/09/23 00:57:21;;;;;;;2.72;2.50;;;;;;;9.06;100.00;99311.38;5151868;27;20051;-65
2022/09/23 00:59:48;;;;;;;3.90;2.58;;;;;;;9.19;100.00;99310.16;5152005;27;20047;-65
2022/09/23 01:02:16;;;;;;;3.28;2.50;;;;;;;9.22;100.00;99319.59;5151651;27;20423;-65
2022/09/23 01:04:42;;;;;;;2.75;2.45;;;;;;;8.98;100.00;99317.03;5151869;27;20046;-65
2022/09/23 01:07:09;;;;;;;3.83;2.65;;;;;;;9.09;100.00;99309.88;5151679;27;20050;-65
2022/09/23 01:09:36;;;;;;;3.40;2.83;;;;;;;9.19;100.00;99304.69;5151758;27;20053;-65
2022/09/23 01:12:15;;;;;;;3.08;2.70;;;;;;;9.23;100.00;99303.97;5151543;27;20068;-66
2022/09/23 01:14:47;;;;;;;4.63;2.58;;;;;;;9.27;100.00;99313.88;5151864;27;20441;-65
2022/09/23 01:17:23;;;;;;;2.97;2.47;;;;;;;9.15;100.00;99322.94;5151955;27;20478;-65
2022/09/23 01:20:28;;;;;;;3.72;2.90;;;;;;;9.15;100.00;99313.97;5151492;27;20138;-66
2022/09/23 01:23:06;;;;;;;3.78;3.20;;;;;;;8.88;100.00;99319.13;5149834;27;20451;-66
2022/09/23 01:25:50;;;;;;;7.22;2.90;;;;;;;8.95;100.00;99300.16;5151316;27;20149;-66
2022/09/23 01:28:38;;;;;;;4.38;3.35;;;;;;;8.79;100.00;99306.75;5151501;27;20076;-66
2022/09/23 01:31:09;;;;;;;4.78;3.28;;;;;;;8.89;100.00;99279.69;5151524;27;20129;-65
2022/09/23 01:33:45;;;;;;;4.45;2.97;;;;;;;8.96;100.00;99284.56;5151402;27;20054;-66
2022/09/23 01:36:20;;;;;;;5.55;3.22;;;;;;;9.02;100.00;99274.94;5151413;27;20051;-66
2022/09/23 01:38:57;;;;;;;4.78;3.45;;;;;;;8.84;100.00;99284.63;5151206;27;20523;-66
2022/09/23 01:41:40;;;;;;;3.40;3.10;;;;;;;8.89;100.00;99276.16;5151481;27;20058;-66
2022/09/23 01:44:10;;;;;;;4.40;3.95;;;;;;;8.90;100.00;99275.81;5151207;27;20090;-66
2022/09/23 01:46:46;;;;;;;5.15;3.13;;;;;;;9.04;100.00;99282.81;5151242;27;20067;-66
2022/09/23 01:49:18;;;;;;;3.85;3.28;;;;;;;8.90;100.00;99291.44;5151469;27;20054;-66
2022/09/23 01:51:50;;;;;;;5.28;4.07;;;;;;;8.90;100.00;99281.28;5151086;27;20051;-66
2022/09/23 01:54:21;;;;;;;4.13;3.15;;;;;;;8.87;100.00;99292.13;5153021;27;20409;-66
2022/09/23 01:56:52;;;;;;;7.10;3.45;;;;;;;8.81;100.00;99283.41;5155055;27;20687;-65
2022/09/23 01:59:25;;;;;;;4.97;3.55;;;;;;;8.93;100.00;99277.06;5154852;27;20053;-65
2022/09/23 02:01:57;;;;;;;8.70;4.07;;;;;;;8.75;100.00;99276.59;5154807;27;20497;-65
2022/09/23 02:04:29;;;;;;;5.32;3.72;;;;;;;8.64;100.00;99264.59;5154540;27;20485;-66
2022/09/23 02:07:01;;;;;;;6.40;3.70;;;;;;;8.83;100.00;99258.44;5154883;27;20360;-66
2022/09/23 02:09:31;;;;;;;8.15;3.78;;;;;;;8.90;100.00;99253.16;5154709;27;20102;-66
2022/09/23 02:12:03;;;;;;;4.40;3.92;;;;;;;8.80;100.00;99257.22;5154561;27;20049;-65
2022/09/23 02:14:36;;;;;;;3.58;3.10;;;;;;;8.81;100.00;99275.19;5154556;27;20439;-66
2022/09/23 02:17:08;;;;;;;4.18;3.42;;;;;;;9.02;100.00;99276.88;5154780;27;20571;-66
2022/09/23 02:19:40;;;;;;;8.85;4.10;;;;;;;8.87;100.00;99287.47;5154339;27;20051;-66
2022/09/23 02:22:14;;;;;;;7.97;4.20;;;;;;;8.88;100.00;99286.31;5154674;27;20061;-66
2022/09/23 02:24:41;;;;;;;4.70;3.53;;;;;;;9.01;100.00;99288.97;5154452;27;20057;-66
2022/09/23 02:27:17;;;;;;;5.35;4.10;;;;;;;9.01;100.00;99302.66;5154311;27;20417;-66
2022/09/23 02:29:53;;;;;;;5.45;4.20;;;;;;;8.83;100.00;99291.22;5154323;27;20051;-66
2022/09/23 02:32:26;;;;;;;8.50;3.78;;;;;;;8.98;100.00;99282.28;5154191;27;20042;-66
2022/09/23 02:34:59;;;;;;;9.25;3.80;;;;;;;9.11;100.00;99280.25;5154407;27;20080;-66
2022/09/23 02:37:32;;;;;;;5.35;3.90;;;;;;;9.09;100.00;99280.59;5154082;27;20053;-66
2022/09/23 02:40:06;;;;;;;4.38;3.60;;;;;;;8.99;100.00;99289.31;5154121;27;20046;-66
2022/09/23 02:42:42;;;;;;;5.43;4.25;;;;;;;8.94;100.00;99306.78;5154188;27;20186;-66
2022/09/23 02:45:08;;;;;;;5.47;4.57;;;;;;;8.97;100.00;99291.63;5154025;27;20076;-65
2022/09/23 02:47:41;;;;;;;4.53;3.47;;;;;;;9.01;100.00;99297.19;5154020;27;20107;-65
2022/09/23 02:50:08;;;;;;;4.72;4.15;;;;;;;9.23;100.00;99293.03;5153856;27;20047;-66
2022/09/23 02:52:36;;;;;;;5.32;4.63;;;;;;;9.00;100.00;99311.97;5154268;27;20395;-66
2022/09/23 02:55:03;;;;;;;6.30;4.05;;;;;;;8.94;100.00;99309.53;5153808;27;20464;-66
2022/09/23 02:57:30;;;;;;;5.00;4.25;;;;;;;9.06;100.00;99308.66;5153854;27;20094;-66
2022/09/23 02:59:57;;;;;;;4.18;3.75;;;;;;;9.08;100.00;99316.50;5153821;27;20076;-65
2022/09/23 03:02:57;;;;;;;5.43;4.10;;;;;;;9.00;100.00;99309.25;5153837;27;20051;-66
2022/09/23 03:05:29;;;;;;;5.50;3.58;;;;;;;9.09;100.00;99310.69;5152941;27;20051;-66
2022/09/23 03:08:11;;;;;;;6.18;3.95;;;;;;;9.28;100.00;99317.41;5153861;27;20471;-66
2022/09/23 03:10:51;;;;;;;5.22;3.88;;;;;;;9.12;100.00;99320.13;5154203;27;20051;-66
2022/09/23 03:13:28;;;;;;;6.00;3.83;;;;;;;8.95;100.00;99305.63;5153509;27;20153;-65
2022/09/23 03:16:03;;;;;;;4.38;3.78;;;;;;;8.89;100.00;99298.81;5153890;27;20505;-65
2022/09/23 03:18:36;;;;;;;4.32;3.92;;;;;;;9.02;100.00;99299.56;5153455;27;20054;-65
2022/09/23 03:21:07;;;;;;;5.50;4.47;;;;;;;8.83;100.00;99300.25;5153521;27;20051;-65
2022/09/23 03:23:36;;;;;;;4.25;3.60;;;;;;;9.03;100.00;99301.16;5153527;27;20057;-65
2022/09/23 03:26:08;;;;;;;11.07;4.97;;;;;;;8.62;100.00;99305.91;5153677;27;20471;-65
2022/09/23 03:28:36;;;;;;;5.68;4.10;;;;;;;9.00;100.00;99277.25;5153576;27;20050;-65
2022/09/23 03:31:04;;;;;;;14.60;4.75;;;;;;;9.06;100.00;99286.75;5153218;27;20054;-65
2022/09/23 03:33:32;;;;;;;5.47;4.72;;;;;;;8.82;100.00;99295.91;5153340;27;20054;-65
2022/09/23 03:38:51;;;;;;;5.75;4.35;;;;;;;8.81;100.00;99271.66;5153275;27;20045;-65
2022/09/23 03:41:24;;;;;;;8.32;4.30;;;;;;;9.07;100.00;99279.38;5153434;27;20085;-65
2022/09/23 03:43:52;;;;;;;5.95;4.40;;;;;;;8.57;100.00;99289.00;5153087;27;20422;-65
2022/09/23 03:46:18;;;;;;;5.88;4.82;;;;;;;8.80;100.00;99268.16;5153276;27;20095;-65
2022/09/23 03:48:45;;;;;;;5.20;4.43;;;;;;;8.99;100.00;99278.38;5152964;27;20103;-66
2022/09/23 03:51:20;;;;;;;5.55;4.55;;;;;;;8.95;100.00;99291.16;5153083;27;20145;-66
2022/09/23 03:53:47;;;;;;;6.90;4.68;;;;;;;8.99;100.00;99291.25;5152959;27;20529;-65
2022/09/23 03:56:13;;;;;;;6.97;4.30;;;;;;;9.06;100.00;99299.66;5152998;27;20053;-66
2022/09/23 03:58:39;;;;;;;5.18;4.57;;;;;;;9.03;100.00;99305.81;5152736;27;20391;-66
2022/09/23 04:01:06;;;;;;;6.53;5.00;;;;;;;9.01;100.00;99319.06;5152664;27;20047;-65
2022/09/23 04:03:32;;;;;;;5.95;4.68;;;;;;;8.95;100.00;99322.03;5152962;27;20138;-66
2022/09/23 04:05:59;;;;;;;5.15;4.28;;;;;;;9.05;100.00;99320.72;5152724;27;20417;-66
2022/09/23 04:08:26;;;;;;;6.43;5.43;;;;;;;8.67;100.00;99343.16;5152769;27;20490;-65
2022/09/23 04:10:52;;;;;;;5.75;4.90;;;;;;;8.85;100.00;99303.41;5152974;27;20183;-65
2022/09/23 04:13:18;;;;;;;5.97;5.00;;;;;;;8.68;100.00;99299.06;5152902;27;20531;-66
2022/09/23 04:15:44;;;;;;;4.53;4.13;;;;;;;8.84;100.00;99295.56;5152732;27;20375;-66
2022/09/23 04:18:11;;;;;;;6.07;4.53;;;;;;;8.86;100.00;99271.41;5153039;27;20599;-65
2022/09/23 04:20:38;;;;;;;5.00;4.55;;;;;;;8.77;100.00;99287.19;5152390;27;20042;-66
2022/09/23 04:23:05;;;;;;;5.70;5.03;;;;;;;8.85;100.00;99278.81;5152836;27;20043;-66
2022/09/23 04:25:32;;;;;;;6.05;4.90;;;;;;;9.05;100.00;99287.13;5152541;27;20051;-66
2022/09/23 04:27:58;;;;;;;9.65;4.63;;;;;;;9.07;100.00;99299.31;5152516;27;20492;-66
2022/09/23 04:30:24;;;;;;;6.38;4.97;;;;;;;9.08;100.00;99300.91;5152262;27;20057;-66
2022/09/23 04:32:51;;;;;;;6.90;5.20;;;;;;;8.75;100.00;99314.84;5152330;27;20050;-65
2022/09/23 04:35:18;;;;;;;7.43;4.50;;;;;;;8.90;100.00;99316.06;5152266;27;20057;-66
2022/09/23 04:37:47;;;;;;;5.93;4.85;;;;;;;8.85;100.00;99314.34;5152273;27;20058;-66
2022/09/23 04:40:14;;;;;;;5.60;4.70;;;;;;;8.77;100.00;99298.91;5152590;27;20050;-66
2022/09/23 04:42:40;;;;;;;10.05;4.95;;;;;;;9.00;100.00;99299.13;5152189;27;20159;-66
2022/09/23 04:45:07;;;;;;;8.35;5.05;;;;;;;8.99;100.00;99310.41;5152401;27;20093;-65
2022/09/23 04:47:33;;;;;;;6.43;5.40;;;;;;;9.12;100.00;99311.91;5152001;27;20047;-66
2022/09/23 04:49:59;;;;;;;7.53;5.20;;;;;;;9.23;100.00;99321.22;5151977;27;20042;-65
2022/09/23 04:52:26;;;;;;;6.65;5.30;;;;;;;9.17;100.00;99328.88;5151693;27;20050;-65
2022/09/23 04:54:52;;;;;;;8.75;5.38;;;;;;;9.11;100.00;99329.47;5151813;27;20057;-65
2022/09/23 04:57:19;;;;;;;7.03;5.90;;;;;;;9.14;100.00;99332.31;5151578;27;20399;-65
2022/09/23 04:59:45;;;;;;;7.35;5.28;;;;;;;9.07;100.00;99337.59;5151771;27;20136;-65
2022/09/23 05:02:12;;;;;;;6.53;5.20;;;;;;;9.25;100.00;99329.06;5151900;27;20054;-66
2022/09/23 05:04:38;;;;;;;7.00;5.18;;;;;;;9.10;100.00;99333.38;5151577;27;20061;-65
2022/09/23 05:07:04;;;;;;;9.75;5.72;;;;;;;8.94;100.00;99325.13;5151863;27;20047;-65
2022/09/23 05:09:31;;;;;;;5.72;4.85;;;;;;;8.99;100.00;99322.13;5151613;27;20146;-66
2022/09/23 05:11:57;;;;;;;5.35;4.85;;;;;;;9.07;100.00;99323.13;5151722;27;20068;-66
2022/09/23 05:14:24;;;;;;;6.18;5.03;;;;;;;9.19;100.00;99328.50;5151586;27;20051;-66
2022/09/23 05:16:50;;;;;;;7.15;5.15;;;;;;;9.24;100.00;99336.47;5151696;27;20047;-66
2022/09/23 05:19:16;;;;;;;6.55;4.93;;;;;;;9.28;100.00;99345.56;5151479;27;20046;-66
2022/09/23 05:21:42;;;;;;;8.88;5.15;;;;;;;9.42;100.00;99340.44;5151459;27;20424;-66
2022/09/23 05:24:10;;;;;;;11.05;5.35;;;;;;;9.34;100.00;99348.84;5151058;27;20122;-66
2022/09/23 05:26:37;;;;;;;5.97;4.38;;;;;;;9.43;100.00;99353.00;5151296;27;20099;-63
2022/09/23 05:29:03;;;;;;;5.93;4.65;;;;;;;9.61;100.00;99358.91;5150885;27;20123;-63
2022/09/23 05:31:31;;;;;;;5.65;4.45;;;;;;;9.51;100.00;99375.84;5151208;27;20046;-62
2022/09/23 05:33:58;;;;;;;5.18;4.35;;;;;;;9.65;100.00;99380.88;5151391;27;20467;-61
2022/09/23 05:36:26;;;;;;;4.97;4.30;;;;;;;9.59;100.00;99388.56;5151017;27;20103;-62
2022/09/23 05:38:53;;;;;;;7.63;4.22;;;;;;;9.80;100.00;99382.06;5151187;27;20498;-64
2022/09/23 05:41:21;;;;;;;5.45;4.60;;;;;;;9.63;100.00;99405.88;5151164;27;20050;-64
2022/09/23 05:43:49;;;;;;;4.55;3.78;;;;;;;9.53;100.00;99405.59;5151118;27;20417;-63
2022/09/23 05:46:17;;;;;;;7.15;3.90;;;;;;;9.72;100.00;99413.91;5150999;27;20059;-73
2022/09/23 05:48:44;;;;;;;4.82;3.72;;;;;;;9.49;100.00;99429.34;5150514;27;20141;-69
2022/09/23 05:51:13;;;;;;;5.25;3.65;;;;;;;9.66;100.00;99434.47;5150898;27;20057;-72
2022/09/23 05:53:43;;;;;;;4.15;3.75;;;;;;;9.79;100.00;99438.72;5150797;27;20469;-71
2022/09/23 05:56:10;;;;;;;4.30;3.90;;;;;;;9.75;100.00;99456.22;5151104;27;20090;-69
2022/09/23 05:58:36;;;;;;;3.72;3.40;;;;;;;9.81;100.00;99452.88;5151177;27;20043;-68
2022/09/23 06:01:09;;;;;;;3.90;3.42;;;;;;;9.95;100.00;99452.44;5151286;27;20050;-66
2022/09/23 06:03:35;;;;;;;5.13;3.38;;;;;;;9.82;100.00;99454.47;5150779;27;20054;-67
2022/09/23 06:06:02;;;;;;;5.55;3.53;;;;;;;9.71;100.00;99452.59;5151179;27;20186;-67
2022/09/23 06:08:28;;;;;;;3.97;3.63;;;;;;;9.95;100.00;99448.91;5150849;27;20051;-65
2022/09/23 06:10:55;;;;;;;6.07;3.17;;;;;;;10.64;100.00;99468.56;5150932;27;20046;-67
2022/09/23 06:13:21;;;;;;;6.78;3.40;;;;;;;10.21;100.00;99498.47;5150809;27;20046;-68
2022/09/23 06:15:47;;;;;;;4.50;3.72;;;;;;;10.14;100.00;99493.63;5151183;27;20165;-67
2022/09/23 06:18:14;;;;;;;4.32;3.35;;;;;;;10.15;100.00;99510.84;5150779;27;20047;-68
2022/09/23 06:20:40;;;;;;;4.30;3.90;;;;;;;9.99;100.00;99502.59;5150742;27;20141;-68
2022/09/23 06:23:09;;;;;;;7.97;3.63;;;;;;;9.97;100.00;99495.91;5150844;27;20050;-68
2022/09/23 06:25:37;;;;;;;5.63;3.78;;;;;;;9.74;100.00;99496.50;5150655;27;20595;-67
2022/09/23 06:28:03;;;;;;;5.10;3.67;;;;;;;9.85;100.00;99483.09;5150746;27;20554;-67
2022/09/23 06:30:30;;;;;;;4.28;3.47;;;;;;;9.77;100.00;99475.84;5150936;27;20525;-68
2022/09/23 06:32:57;;;;;;;4.03;3.53;;;;;;;10.09;100.00;99465.69;5150969;27;20057;-68
2022/09/23 06:35:25;;;;;;;5.65;3.95;;;;;;;9.97;100.00;99476.75;5150553;27;20505;-67
2022/09/23 06:37:51;;;;;;;3.72;2.58;;;;;;;9.81;100.00;99474.78;5150807;27;20053;-68
2022/09/23 06:40:19;;;;;;;3.47;3.17;;;;;;;9.76;100.00;99490.66;5150710;27;20198;-67
2022/09/23 06:42:45;;;;;;;4.30;3.13;;;;;;;10.29;100.00;99483.81;5154165;27;20141;-68
2022/09/23 06:45:14;;;;;;;5.47;3.75;;;;;;;10.35;100.00;99487.88;5154034;27;20051;-68
2022/09/23 06:47:40;;;;;;;3.78;3.38;;;;;;;10.40;100.00;99492.31;5153770;27;20050;-68
2022/09/23 06:50:08;;;;;;;6.82;3.70;;;;;;;10.53;100.00;99506.69;5154101;27;20422;-67
2022/09/23 06:52:34;;;;;;;4.85;3.63;;;;;;;10.76;100.00;99504.91;5153710;27;20072;-67
2022/09/23 06:55:00;;;;;;;3.53;3.20;;;;;;;10.61;100.00;99513.94;5153934;27;20054;-68
2022/09/23 06:57:29;;;;;;;4.63;3.45;;;;;;;10.61;100.00;99519.41;5154072;27;20051;-68
2022/09/23 06:59:57;;;;;;;3.03;2.67;;;;;;;10.28;100.00;99515.13;5154124;27;20042;-68
2022/09/23 07:02:23;;;;;;;3.75;3.00;;;;;;;10.27;100.00;99515.47;5153497;27;20061;-68
2022/09/23 07:04:50;;;;;;;3.90;3.50;;;;;;;10.24;100.00;99510.69;5153880;27;20047;-68
2022/09/23 07:07:17;;;;;;;7.53;3.22;;;;;;;10.35;100.00;99515.28;5153569;27;20047;-67
2022/09/23 07:09:43;;;;;;;2.97;2.67;;;;;;;10.69;100.00;99512.94;5153709;27;20046;-68
2022/09/23 07:12:09;;;;;;;3.58;2.70;;;;;;;10.81;100.00;99506.56;5153516;27;20492;-67
2022/09/23 07:14:36;;;;;;;4.65;3.38;;;;;;;10.62;100.00;99503.75;5153630;27;20143;-67
2022/09/23 07:17:03;;;;;;;4.15;3.30;;;;;;;10.16;100.00;99511.63;5153646;27;20141;-75
2022/09/23 07:19:29;;;;;;;3.92;3.10;;;;;;;10.15;100.00;99519.06;5153618;27;20491;-79
2022/09/23 07:21:55;;;;;;;3.58;2.92;;;;;;;10.04;100.00;99507.06;5153708;27;20042;-73
2022/09/23 07:24:22;;;;;;;4.28;3.50;;;;;;;9.94;100.00;99505.63;5153328;27;20082;-70
2022/09/23 07:26:48;;;;;;;4.70;3.65;;;;;;;10.04;100.00;99496.09;5153629;27;20055;-77
2022/09/23 07:29:15;;;;;;;4.53;3.47;;;;;;;10.29;100.00;99500.25;5153050;27;20456;-78
2022/09/23 07:31:42;;;;;;;7.20;3.53;;;;;;;10.18;100.00;99515.63;5153421;27;20051;-75
2022/09/23 07:34:10;;;;;;;5.88;4.55;;;;;;;10.27;100.00;99504.53;5153137;27;20061;-77
2022/09/23 07:36:39;;;;;;;5.90;4.78;;;;;;;10.67;100.00;99498.03;5153317;27;20058;-76
2022/09/23 07:39:06;;;;;;;5.78;3.67;;;;;;;10.80;100.00;99504.97;5153207;27;20957;-75
2022/09/23 07:41:33;;;;;;;4.90;3.22;;;;;;;10.50;100.00;99513.69;5153124;27;20571;-74
2022/09/23 07:44:02;;;;;;;6.38;3.00;;;;;;;10.42;100.00;99514.66;5153096;27;20050;-72
2022/09/23 07:46:30;;;;;;;3.53;3.13;;;;;;;10.20;100.00;99513.34;5153164;27;20105;-72
2022/09/23 07:48:57;;;;;;;4.15;3.40;;;;;;;10.52;100.00;99505.88;5153053;27;20047;-72
2022/09/23 07:51:25;;;;;;;3.67;3.38;;;;;;;10.64;100.00;99510.50;5152469;27;20047;-73
2022/09/23 07:53:55;;;;;;;5.05;3.63;;;;;;;10.56;100.00;99511.47;5152383;27;20416;-71
2022/09/23 07:56:25;;;;;;;3.80;2.92;;;;;;;10.69;100.00;99514.88;5152753;27;20129;-70
2022/09/23 07:58:59;;;;;;;2.80;2.45;;;;;;;10.49;100.00;99517.56;5153004;27;20061;-69
2022/09/23 08:01:26;;;;;;;3.97;3.25;;;;;;;10.32;100.00;99516.00;5152626;27;20042;-75
2022/09/23 08:03:52;;;;;;;3.95;3.05;;;;;;;10.30;100.00;99512.03;5152630;27;20047;-70
2022/09/23 08:06:19;;;;;;;4.55;2.80;;;;;;;10.47;100.00;99516.34;5152766;27;20103;-71
2022/09/23 08:08:45;;;;;;;3.30;2.90;;;;;;;10.77;100.00;99511.16;5152549;27;20058;-71
2022/09/23 08:11:13;;;;;;;4.53;3.00;;;;;;;10.57;100.00;99518.56;5152557;27;20135;-68
2022/09/23 08:13:39;;;;;;;3.47;3.17;;;;;;;10.65;100.00;99516.75;5152612;27;20047;-64
2022/09/23 08:16:06;;;;;;;3.70;2.85;;;;;;;10.70;100.00;99514.56;5152560;27;20394;-67
2022/09/23 08:18:32;;;;;;;3.20;2.28;;;;;;;10.31;100.00;99517.16;5152100;27;20528;-67
2022/09/23 08:20:58;;;;;;;2.60;2.40;;;;;;;10.35;100.00;99518.03;5152733;27;20401;-71
2022/09/23 08:23:26;;;;;;;2.50;2.30;;;;;;;10.51;100.00;99515.28;5152261;27;20054;-65
2022/09/23 08:25:58;;;;;;;1.98;1.77;;;;;;;10.75;100.00;99506.03;5152436;27;20057;-69
2022/09/23 08:28:24;;;;;;;2.63;2.15;;;;;;;10.72;100.00;99503.22;5152166;27;20149;-68
2022/09/23 08:30:51;;;;;;;2.40;2.10;;;;;;;10.74;100.00;99501.72;5152339;27;20046;-67
2022/09/23 08:33:18;;;;;;;3.78;2.67;;;;;;;10.92;100.00;99501.31;5152025;27;20042;-67
2022/09/23 08:35:44;;;;;;;2.58;2.22;;;;;;;10.65;100.00;99494.81;5151993;27;20054;-67
2022/09/23 08:38:10;;;;;;;2.65;1.98;;;;;;;10.68;100.00;99485.88;5152036;27;20050;-64
2022/09/23 08:40:41;;;;;;;5.88;2.40;;;;;;;10.50;100.00;99463.56;5151754;27;20046;-64
2022/09/23 08:43:14;;;;;;;5.38;2.50;;;;;;;10.64;100.00;99482.28;5152267;27;20138;-64
2022/09/23 08:45:42;;;;;;;2.60;2.40;;;;;;;10.70;100.00;99461.66;5151766;27;20118;-64
2022/09/23 08:48:14;;;;;;;7.43;5.03;;;;;;;10.71;100.00;99474.22;5152010;27;20137;-64
2022/09/23 08:50:43;;;;;;;5.22;3.95;;;;;;;10.74;100.00;99435.91;5151699;27;20429;-68
2022/09/23 08:53:19;;;;;;;4.93;3.35;;;;;;;10.87;100.00;99394.63;5151946;27;20498;-64
2022/09/23 08:55:50;;;;;;;2.80;2.58;;;;;;;10.92;100.00;99403.34;5151995;27;20095;-65
2022/09/23 08:58:43;;;;;;;2.58;1.98;;;;;;;11.18;100.00;99371.72;5151605;27;20098;-68
2022/09/23 09:01:17;;;;;;;4.22;3.75;;;;;;;11.16;100.00;99379.50;5147509;27;20509;-66
2022/09/23 09:03:48;;;;;;;4.70;3.28;;;;;;;10.93;100.00;99377.53;5150693;27;20186;-66
2022/09/23 09:06:19;;;;;;;2.97;2.15;;;;;;;10.76;100.00;99406.19;5152171;27;20359;-66
2022/09/23 09:08:53;;;;;;;2.10;2.00;;;;;;;10.86;100.00;99415.75;5151591;27;20462;-68
2022/09/23 09:11:30;;;;;;;3.10;1.88;;;;;;;10.81;100.00;99389.41;5151603;27;20046;-63
2022/09/23 09:14:04;;;;;;;2.03;1.92;;;;;;;10.85;100.00;99389.50;5152135;27;20416;-67
2022/09/23 09:16:47;;;;;;;2.13;1.92;;;;;;;10.55;100.00;99364.59;5151338;27;20057;-68
2022/09/23 09:19:19;;;;;;;4.43;2.38;;;;;;;11.01;100.00;99359.25;5151652;27;20047;-65
2022/09/23 09:21:47;;;;;;;2.70;2.50;;;;;;;11.03;100.00;99385.16;5151429;27;20142;-67
2022/09/23 09:24:19;;;;;;;3.80;2.25;;;;;;;10.90;100.00;99404.88;5151525;27;20498;-68
2022/09/23 09:26:46;;;;;;;2.33;2.13;;;;;;;11.10;100.00;99368.03;5151360;27;20053;-72
2022/09/23 09:29:16;;;;;;;2.38;2.17;;;;;;;10.98;100.00;99376.41;5151339;27;20459;-72
2022/09/23 09:31:44;;;;;;;5.97;1.83;;;;;;;10.99;100.00;99351.34;5151302;27;20092;-68
2022/09/23 09:34:19;;;;;;;1.60;1.50;;;;;;;10.95;100.00;99369.69;5151070;27;20060;-69
2022/09/23 09:36:49;;;;;;;4.63;1.95;;;;;;;11.15;100.00;99377.91;5151412;27;20466;-69
2022/09/23 09:39:16;;;;;;;2.63;1.90;;;;;;;10.94;100.00;99390.06;5151056;27;20046;-69
2022/09/23 09:41:47;;;;;;;1.85;1.75;;;;;;;10.80;100.00;99368.66;5151334;27;20485;-70
2022/09/23 09:44:24;;;;;;;2.05;1.70;;;;;;;10.70;100.00;99373.91;5151041;27;20095;-69
2022/09/23 09:47:00;;;;;;;2.28;1.88;;;;;;;11.26;100.00;99384.38;5151619;27;20093;-68
2022/09/23 09:49:34;;;;;;;4.88;1.73;;;;;;;11.43;100.00;99241.19;5151117;27;20099;-68
2022/09/23 09:52:20;;;;;;;2.00;1.77;;;;;;;10.98;100.00;99239.25;5150870;27;20057;-66
2022/09/23 09:54:48;;;;;;;1.80;1.70;;;;;;;11.19;100.00;99217.66;5151009;27;20513;-64
2022/09/23 09:57:26;;;;;;;2.70;1.88;;;;;;;11.42;100.00;99245.09;5150730;27;20054;-65
2022/09/23 09:59:52;;;;;;;3.78;2.60;;;;;;;11.23;100.00;99264.38;5151144;27;20046;-65
2022/09/23 10:02:26;;;;;;;2.50;2.25;;;;;;;11.42;100.00;99318.41;5150818;27;20502;-71
2022/09/23 10:05:00;;;;;;;2.65;2.45;;;;;;;11.29;100.00;99331.53;5150680;27;20051;-68
2022/09/23 10:07:29;;;;;;;2.78;2.40;;;;;;;11.27;100.00;99350.31;5150871;27;20057;-67
2022/09/23 10:10:00;;;;;;;3.47;3.17;;;;;;;11.00;100.00;99387.84;5150789;27;20047;-67
2022/09/23 10:12:27;;;;;;;2.60;2.40;;;;;;;10.81;100.00;99410.56;5150964;27;20097;-67
2022/09/23 10:14:56;;;;;;;4.03;2.72;;;;;;;11.04;100.00;99411.44;5151417;27;20506;-66
2022/09/23 10:17:24;;;;;;;2.47;2.28;;;;;;;11.04;100.00;99419.66;5154280;27;20042;-65
2022/09/23 10:19:59;;;;;;;3.17;2.78;;;;;;;10.92;100.00;99405.28;5154221;27;20053;-65
2022/09/23 10:22:31;;;;;;;3.78;3.20;;;;;;;10.94;100.00;99425.72;5154550;27;20047;-68
2022/09/23 10:25:00;;;;;;;4.68;3.30;;;;;;;10.66;100.00;99409.47;5154267;27;20050;-68
2022/09/23 10:27:30;;;;;;;4.53;2.45;;;;;;;10.78;100.00;99436.75;5154407;27;20098;-68
2022/09/23 10:29:58;;;;;;;2.38;2.13;;;;;;;10.94;100.00;99449.63;5154561;27;20053;-70
2022/09/23 10:32:28;;;;;;;3.35;2.63;;;;;;;10.73;100.00;99426.09;5154087;27;20498;-69
2022/09/23 10:34:57;;;;;;;6.82;2.78;;;;;;;11.29;100.00;99409.16;5154036;27;20565;-68
2022/09/23 10:37:32;;;;;;;4.30;2.65;;;;;;;11.39;100.00;99376.78;5153937;27;20054;-68
2022/09/23 10:48:44;;;;;;;3.30;2.38;;;;;;;11.16;100.00;99379.50;5154164;27;20518;-67
2022/09/23 10:51:18;;;;;;;2.45;2.22;;;;;;;11.02;100.00;99386.31;5153703;27;20053;-67
2022/09/23 10:53:54;;;;;;;3.25;2.53;;;;;;;10.91;100.00;99379.03;5153825;27;20061;-67
2022/09/23 10:56:32;;;;;;;2.65;2.20;;;;;;;10.84;100.00;99401.63;5153787;27;20069;-66
2022/09/23 10:59:34;;;;;;;2.97;2.65;;;;;;;10.61;100.00;99404.28;5153674;27;20047;-66
2022/09/23 11:02:14;;;;;;;4.82;2.85;;;;;;;10.81;100.00;99421.53;5153477;27;20433;-65
2022/09/23 11:05:10;;;;;;;2.70;2.45;;;;;;;11.04;100.00;99427.09;5153431;27;20091;-65
2022/09/23 11:07:43;;;;;;;4.10;2.70;;;;;;;10.98;100.00;99395.63;5139696;27;20055;-66
2022/09/23 11:10:25;;;;;;;5.68;2.38;;;;;;;11.00;100.00;99396.84;5153541;27;20054;-66
2022/09/23 11:13:03;;;;;;;2.90;2.60;;;;;;;11.29;100.00;99339.75;5153622;27;20058;-66
2022/09/23 11:15:44;;;;;;;2.47;2.28;;;;;;;11.55;100.00;99325.28;5153714;27;20403;-65
2022/09/23 11:18:28;;;;;;;2.72;2.13;;;;;;;11.87;100.00;99201.44;5153229;27;20524;-67
2022/09/23 11:21:03;;;;;;;2.40;2.15;;;;;;;11.67;100.00;99173.28;5153489;27;20061;-68
2022/09/23 11:23:43;;;;;;;2.95;2.63;;;;;;;12.02;100.00;99104.28;5153402;27;20057;-67
2022/09/23 11:26:23;;;;;;;2.08;1.90;;;;;;;12.11;100.00;99044.31;5152395;27;20057;-67
2022/09/23 11:29:05;;;;;;;2.65;2.17;;;;;;;12.26;100.00;98995.75;5153087;27;20053;-67
2022/09/23 11:31:43;;;;;;;2.42;1.90;;;;;;;12.40;100.00;98896.91;5153057;27;20098;-67
2022/09/23 11:34:42;;;;;;;2.63;2.00;;;;;;;12.41;100.00;98813.28;5153284;27;20054;-67
2022/09/23 11:37:12;;;;;;;4.85;2.08;;;;;;;12.90;100.00;98712.84;5152849;27;20042;-65
2022/09/23 11:39:43;;;;;;;2.50;2.28;;;;;;;12.63;100.00;98701.41;5153290;27;20057;-59
2022/09/23 11:42:21;;;;;;;2.40;2.20;;;;;;;12.46;100.00;98674.63;5152918;27;20095;-59
2022/09/23 11:44:53;;;;;;;1.73;1.63;;;;;;;12.59;100.00;98598.84;5153045;27;20360;-59
2022/09/23 11:47:25;;;;;;;2.00;1.80;;;;;;;12.65;100.00;98582.75;5152929;27;20099;-59
2022/09/23 11:49:57;;;;;;;2.30;2.05;;;;;;;12.48;100.00;98585.09;5152650;27;20058;-59
2022/09/23 11:52:30;;;;;;;2.97;2.00;;;;;;;12.53;100.00;98649.13;5153074;27;20069;-60
2022/09/23 11:55:02;;;;;;;2.28;2.00;;;;;;;12.52;100.00;98559.56;5153040;27;20054;-59